createdAt,value
2023-06-01T00:01:01.150Z,17.10
2023-06-01T00:01:59.041Z,14.20
2023-06-01T00:02:59.073Z,17.60
2023-06-01T00:03:59.238Z,16.60
2023-06-01T00:04:59.074Z,14.50
2023-06-01T00:05:59.018Z,24.20
2023-06-01T00:06:59.004Z,15.80
2023-06-01T00:07:58.981Z,18.10
2023-06-01T00:08:58.995Z,18.30
2023-06-01T00:10:01.716Z,18.70
2023-06-01T00:10:59.238Z,16.20
2023-06-01T00:11:58.972Z,16.00
2023-06-01T00:12:58.945Z,15.10
2023-06-01T00:13:58.930Z,17.70
2023-06-01T00:14:58.920Z,15.30
2023-06-01T00:15:58.902Z,20.60
2023-06-01T00:16:58.872Z,14.10
2023-06-01T00:17:58.952Z,16.10
2023-06-01T00:18:58.976Z,16.80
2023-06-01T00:19:58.856Z,18.30
2023-06-01T00:20:58.941Z,15.20
2023-06-01T00:21:58.927Z,14.60
2023-06-01T00:22:58.919Z,18.10
2023-06-01T00:24:02.607Z,17.60
2023-06-01T00:24:58.850Z,14.00
2023-06-01T00:25:58.866Z,19.70
2023-06-01T00:26:58.804Z,18.80
2023-06-01T00:27:58.790Z,14.60
2023-06-01T00:28:58.770Z,15.50
2023-06-01T00:29:58.759Z,17.50
2023-06-01T00:31:00.530Z,16.90
2023-06-01T00:31:58.844Z,18.00
2023-06-01T00:32:58.795Z,19.40
2023-06-01T00:33:58.715Z,19.20
2023-06-01T00:34:58.691Z,17.80
2023-06-01T00:35:58.681Z,17.50
2023-06-01T00:36:58.698Z,18.50
2023-06-01T00:37:58.707Z,17.30
2023-06-01T00:38:58.645Z,22.50
2023-06-01T00:39:58.640Z,18.60
2023-06-01T00:40:58.749Z,16.10
2023-06-01T00:41:58.941Z,18.10
2023-06-01T00:42:58.658Z,17.10
2023-06-01T00:43:58.580Z,19.10
2023-06-01T00:44:58.592Z,18.50
2023-06-01T00:45:58.572Z,19.10
2023-06-01T00:46:58.695Z,19.30
2023-06-01T00:47:58.593Z,16.80
2023-06-01T00:48:58.519Z,21.50
2023-06-01T00:50:00.542Z,21.10
2023-06-01T00:51:00.831Z,16.70
2023-06-01T00:51:58.653Z,17.00
2023-06-01T00:52:58.512Z,20.90
2023-06-01T00:53:58.515Z,21.50
2023-06-01T00:54:58.497Z,19.10
2023-06-01T00:55:58.533Z,21.30
2023-06-01T00:56:58.525Z,19.50
2023-06-01T00:57:58.483Z,21.00
2023-06-01T00:58:58.636Z,18.00
2023-06-01T00:59:58.443Z,18.20
2023-06-01T01:00:58.561Z,18.70
2023-06-01T01:02:00.389Z,18.10
2023-06-01T01:02:58.534Z,20.60
2023-06-01T01:03:58.713Z,23.20
2023-06-01T01:05:00.360Z,18.00
2023-06-01T01:05:58.411Z,24.60
2023-06-01T01:06:58.394Z,20.90
2023-06-01T01:07:59.876Z,23.40
2023-06-01T01:08:58.374Z,24.90
2023-06-01T01:09:58.319Z,20.80
2023-06-01T01:11:00.425Z,17.70
2023-06-01T01:11:58.262Z,19.40
2023-06-01T01:12:58.300Z,18.20
2023-06-01T01:14:00.196Z,17.80
2023-06-01T01:14:58.304Z,16.90
2023-06-01T01:15:58.250Z,15.70
2023-06-01T01:16:59.779Z,19.20
2023-06-01T01:17:58.285Z,25.20
2023-06-01T01:18:58.211Z,19.30
2023-06-01T01:19:59.751Z,19.20
2023-06-01T01:20:58.237Z,19.50
2023-06-01T01:21:58.190Z,19.40
2023-06-01T01:22:59.634Z,21.40
2023-06-01T01:23:58.248Z,18.70
2023-06-01T01:24:58.218Z,24.40
2023-06-01T01:25:58.156Z,18.10
2023-06-01T01:26:58.119Z,18.90
2023-06-01T01:27:58.254Z,20.30
2023-06-01T01:28:58.238Z,21.90
2023-06-01T01:29:58.209Z,19.00
2023-06-01T01:30:58.106Z,19.40
2023-06-01T01:31:58.121Z,24.70
2023-06-01T01:32:58.076Z,18.00
2023-06-01T01:33:58.089Z,14.00
2023-06-01T01:35:00.022Z,17.60
2023-06-01T01:35:58.196Z,15.10
2023-06-01T01:36:58.041Z,18.10
2023-06-01T01:38:12.738Z,21.20
2023-06-01T01:38:57.997Z,19.50
2023-06-01T01:39:57.999Z,19.90
2023-06-01T01:40:58.432Z,21.30
2023-06-01T01:41:57.993Z,20.30
2023-06-01T01:42:58.001Z,18.20
2023-06-01T01:43:57.991Z,16.60
2023-06-01T01:44:57.966Z,13.80
2023-06-01T01:45:57.914Z,17.70
2023-06-01T01:46:57.970Z,18.70
2023-06-01T01:47:58.280Z,18.10
2023-06-01T01:48:57.960Z,16.10
2023-06-01T01:49:57.828Z,15.60
2023-06-01T01:50:57.880Z,17.10
2023-06-01T01:51:57.865Z,21.30
2023-06-01T01:52:57.901Z,16.90
2023-06-01T01:53:57.822Z,18.10
2023-06-01T01:54:59.776Z,21.90
2023-06-01T01:55:57.844Z,17.00
2023-06-01T01:56:57.805Z,17.70
2023-06-01T01:57:57.813Z,16.70
2023-06-01T01:58:57.797Z,16.10
2023-06-01T01:59:57.798Z,15.00
2023-06-01T02:00:59.917Z,18.60
2023-06-01T02:01:57.763Z,14.60
2023-06-01T02:02:57.847Z,15.30
2023-06-01T02:03:57.868Z,16.50
2023-06-01T02:04:57.700Z,19.30
2023-06-01T02:05:57.718Z,16.90
2023-06-01T02:06:57.766Z,20.10
2023-06-01T02:07:57.730Z,19.40
2023-06-01T02:08:57.655Z,16.80
2023-06-01T02:09:57.678Z,21.00
2023-06-01T02:10:57.694Z,17.20
2023-06-01T02:11:57.622Z,20.00
2023-06-01T02:12:59.547Z,16.30
2023-06-01T02:13:59.613Z,20.20
2023-06-01T02:14:57.636Z,18.20
2023-06-01T02:15:57.608Z,19.00
2023-06-01T02:16:57.531Z,16.20
2023-06-01T02:17:57.616Z,19.80
2023-06-01T02:18:57.556Z,18.90
2023-06-01T02:19:57.550Z,19.20
2023-06-01T02:20:57.588Z,15.70
2023-06-01T02:21:57.531Z,15.40
2023-06-01T02:22:57.580Z,16.70
2023-06-01T02:23:57.532Z,17.00
2023-06-01T02:24:57.563Z,16.50
2023-06-01T02:25:57.467Z,20.70
2023-06-01T02:26:58.600Z,18.50
2023-06-01T02:27:57.427Z,15.80
2023-06-01T02:28:57.443Z,22.00
2023-06-01T02:29:57.466Z,16.30
2023-06-01T02:30:57.574Z,16.20
2023-06-01T02:31:57.424Z,18.20
2023-06-01T02:32:57.475Z,14.70
2023-06-01T02:33:58.908Z,17.10
2023-06-01T02:34:57.440Z,17.60
2023-06-01T02:35:57.438Z,16.50
2023-06-01T02:36:57.420Z,19.70
2023-06-01T02:37:57.385Z,18.40
2023-06-01T02:38:57.534Z,15.10
2023-06-01T02:39:57.367Z,17.10
2023-06-01T02:40:57.374Z,13.50
2023-06-01T02:41:57.395Z,15.60
2023-06-01T02:42:57.287Z,16.80
2023-06-01T02:43:57.252Z,18.20
2023-06-01T02:44:58.839Z,16.70
2023-06-01T02:45:57.369Z,14.40
2023-06-01T02:46:57.269Z,18.40
2023-06-01T02:47:57.306Z,18.40
2023-06-01T02:48:57.537Z,15.90
2023-06-01T02:49:59.177Z,14.80
2023-06-01T02:50:57.242Z,21.80
2023-06-01T02:51:57.322Z,14.10
2023-06-01T02:52:57.189Z,16.80
2023-06-01T02:53:57.267Z,13.10
2023-06-01T02:54:57.135Z,15.70
2023-06-01T02:55:57.127Z,18.40
2023-06-01T02:56:57.133Z,15.40
2023-06-01T02:57:57.089Z,15.40
2023-06-01T02:58:57.169Z,12.70
2023-06-01T02:59:57.089Z,14.20
2023-06-01T03:00:57.120Z,14.80
2023-06-01T03:01:59.005Z,13.50
2023-06-01T03:02:57.108Z,16.20
2023-06-01T03:03:57.141Z,14.30
2023-06-01T03:04:57.037Z,13.10
2023-06-01T03:05:57.034Z,17.50
2023-06-01T03:06:57.021Z,15.10
2023-06-01T03:07:57.134Z,11.80
2023-06-01T03:08:57.059Z,12.20
2023-06-01T03:09:56.986Z,16.80
2023-06-01T03:10:58.947Z,13.90
2023-06-01T03:11:56.997Z,15.70
2023-06-01T03:12:57.042Z,13.40
2023-06-01T03:13:58.878Z,15.30
2023-06-01T03:14:56.947Z,16.50
2023-06-01T03:15:56.979Z,15.90
2023-06-01T03:16:58.922Z,14.20
2023-06-01T03:17:56.958Z,16.60
2023-06-01T03:18:56.946Z,14.90
2023-06-01T03:19:57.395Z,11.60
2023-06-01T03:20:56.910Z,14.90
2023-06-01T03:21:56.935Z,11.90
2023-06-01T03:22:56.860Z,14.40
2023-06-01T03:23:56.970Z,13.50
2023-06-01T03:24:56.877Z,14.50
2023-06-01T03:25:56.837Z,12.20
2023-06-01T03:26:56.869Z,13.10
2023-06-01T03:27:56.796Z,13.50
2023-06-01T03:28:56.823Z,12.80
2023-06-01T03:29:56.811Z,15.10
2023-06-01T03:30:56.804Z,15.10
2023-06-01T03:31:56.794Z,18.20
2023-06-01T03:32:56.808Z,13.90
2023-06-01T03:33:56.745Z,14.50
2023-06-01T03:34:57.752Z,13.30
2023-06-01T03:35:56.764Z,12.20
2023-06-01T03:36:56.778Z,13.20
2023-06-01T03:37:56.795Z,14.40
2023-06-01T03:38:56.712Z,13.30
2023-06-01T03:39:56.708Z,12.50
2023-06-01T03:40:58.212Z,15.00
2023-06-01T03:41:56.742Z,14.90
2023-06-01T03:42:56.688Z,14.50
2023-06-01T03:43:56.585Z,14.50
2023-06-01T03:44:56.653Z,15.00
2023-06-01T03:45:56.745Z,16.20
2023-06-01T03:46:57.745Z,11.50
2023-06-01T03:47:56.665Z,16.00
2023-06-01T03:48:56.648Z,19.20
2023-06-01T03:49:56.636Z,12.00
2023-06-01T03:50:56.583Z,14.10
2023-06-01T03:51:56.577Z,12.90
2023-06-01T03:52:56.964Z,14.60
2023-06-01T03:53:56.518Z,15.80
2023-06-01T03:54:56.575Z,17.30
2023-06-01T03:55:56.540Z,16.60
2023-06-01T03:56:58.472Z,17.60
2023-06-01T03:57:57.492Z,16.00
2023-06-01T03:58:56.521Z,19.50
2023-06-01T03:59:56.496Z,16.10
2023-06-01T04:00:56.464Z,16.70
2023-06-01T04:01:57.698Z,13.50
2023-06-01T04:02:56.568Z,11.80
2023-06-01T04:03:56.577Z,12.40
2023-06-01T04:04:56.460Z,15.60
2023-06-01T04:05:56.389Z,14.90
2023-06-01T04:06:56.428Z,11.10
2023-06-01T04:07:56.423Z,13.60
2023-06-01T04:08:56.471Z,13.50
2023-06-01T04:09:56.346Z,15.70
2023-06-01T04:10:56.397Z,11.90
2023-06-01T04:11:56.389Z,17.80
2023-06-01T04:12:56.329Z,11.50
2023-06-01T04:13:56.397Z,21.40
2023-06-01T04:14:56.264Z,13.60
2023-06-01T04:15:58.278Z,12.50
2023-06-01T04:16:56.433Z,14.10
2023-06-01T04:17:56.348Z,15.50
2023-06-01T04:18:56.315Z,11.00
2023-06-01T04:19:56.260Z,14.80
2023-06-01T04:20:56.270Z,14.60
2023-06-01T04:21:56.576Z,15.20
2023-06-01T04:22:58.229Z,12.10
2023-06-01T04:23:56.261Z,19.20
2023-06-01T04:24:56.246Z,17.60
2023-06-01T04:25:56.165Z,16.40
2023-06-01T04:26:56.204Z,14.60
2023-06-01T04:27:56.245Z,11.00
2023-06-01T04:28:56.294Z,12.00
2023-06-01T04:29:58.119Z,13.90
2023-06-01T04:30:56.121Z,17.60
2023-06-01T04:31:56.271Z,11.90
2023-06-01T04:32:56.178Z,12.50
2023-06-01T04:33:56.048Z,16.40
2023-06-01T04:34:56.102Z,20.90
2023-06-01T04:35:56.149Z,15.70
2023-06-01T04:36:56.102Z,17.50
2023-06-01T04:37:56.101Z,14.00
2023-06-01T04:38:56.016Z,13.10
2023-06-01T04:39:56.067Z,19.50
2023-06-01T04:40:57.987Z,17.60
2023-06-01T04:41:57.479Z,12.40
2023-06-01T04:42:55.986Z,13.40
2023-06-01T04:43:55.975Z,12.40
2023-06-01T04:44:56.011Z,16.20
2023-06-01T04:45:55.949Z,15.10
2023-06-01T04:46:55.997Z,11.90
2023-06-01T04:47:57.450Z,10.50
2023-06-01T04:48:55.891Z,16.10
2023-06-01T04:49:55.959Z,12.30
2023-06-01T04:50:55.858Z,10.80
2023-06-01T04:51:55.969Z,12.70
2023-06-01T04:52:55.919Z,13.00
2023-06-01T04:53:55.868Z,15.70
2023-06-01T04:54:57.844Z,19.40
2023-06-01T04:55:55.885Z,11.60
2023-06-01T04:56:55.797Z,10.80
2023-06-01T04:57:55.946Z,13.30
2023-06-01T04:58:57.857Z,13.50
2023-06-01T04:59:55.878Z,14.40
2023-06-01T05:00:55.863Z,14.60
2023-06-01T05:01:55.764Z,15.90
2023-06-01T05:02:55.855Z,12.40
2023-06-01T05:03:55.799Z,12.90
2023-06-01T05:04:59.488Z,13.30
2023-06-01T05:05:57.764Z,18.80
2023-06-01T05:06:55.814Z,13.30
2023-06-01T05:07:55.763Z,13.10
2023-06-01T05:08:55.741Z,16.20
2023-06-01T05:09:55.819Z,16.20
2023-06-01T05:10:55.832Z,16.70
2023-06-01T05:11:55.637Z,13.30
2023-06-01T05:12:55.737Z,12.90
2023-06-01T05:13:55.722Z,15.30
2023-06-01T05:14:55.735Z,17.10
2023-06-01T05:15:55.631Z,14.20
2023-06-01T05:16:55.701Z,12.40
2023-06-01T05:17:55.747Z,11.90
2023-06-01T05:18:55.694Z,14.70
2023-06-01T05:19:55.628Z,12.00
2023-06-01T05:20:55.629Z,13.10
2023-06-01T05:21:55.648Z,14.50
2023-06-01T05:22:55.590Z,14.20
2023-06-01T05:23:55.648Z,16.40
2023-06-01T05:24:57.065Z,12.70
2023-06-01T05:25:55.552Z,16.30
2023-06-01T05:26:55.505Z,14.10
2023-06-01T05:27:55.531Z,13.90
2023-06-01T05:28:55.519Z,13.10
2023-06-01T05:29:56.986Z,18.50
2023-06-01T05:30:55.471Z,13.00
2023-06-01T05:31:55.643Z,15.00
2023-06-01T05:32:55.468Z,12.30
2023-06-01T05:33:55.493Z,13.70
2023-06-01T05:34:55.435Z,14.20
2023-06-01T05:35:55.471Z,16.70
2023-06-01T05:36:55.442Z,16.40
2023-06-01T05:37:55.530Z,11.10
2023-06-01T05:38:55.424Z,18.50
2023-06-01T05:39:55.478Z,14.40
2023-06-01T05:40:55.360Z,13.10
2023-06-01T05:41:55.435Z,16.80
2023-06-01T05:42:55.398Z,17.90
2023-06-01T05:43:55.417Z,16.30
2023-06-01T05:44:55.330Z,12.40
2023-06-01T05:45:55.354Z,13.80
2023-06-01T05:46:55.320Z,14.40
2023-06-01T05:47:55.461Z,11.70
2023-06-01T05:48:55.427Z,14.80
2023-06-01T05:49:55.293Z,17.70
2023-06-01T05:50:55.251Z,14.00
2023-06-01T05:51:57.064Z,15.60
2023-06-01T05:52:55.298Z,17.70
2023-06-01T05:53:55.251Z,14.20
2023-06-01T05:54:55.227Z,13.60
2023-06-01T05:55:55.216Z,13.50
2023-06-01T05:56:55.354Z,17.40
2023-06-01T05:57:55.304Z,12.80
2023-06-01T05:58:55.164Z,15.60
2023-06-01T05:59:55.297Z,14.60
2023-06-01T06:00:55.249Z,15.90
2023-06-01T06:01:55.253Z,15.00
2023-06-01T06:02:55.301Z,17.20
2023-06-01T06:03:55.231Z,14.70
2023-06-01T06:04:55.105Z,15.80
2023-06-01T06:05:55.219Z,18.00
2023-06-01T06:06:57.046Z,13.00
2023-06-01T06:07:55.092Z,13.70
2023-06-01T06:08:55.038Z,15.30
2023-06-01T06:09:55.082Z,13.30
2023-06-01T06:10:55.060Z,12.20
2023-06-01T06:11:55.045Z,13.90
2023-06-01T06:12:55.101Z,17.00
2023-06-01T06:13:55.014Z,14.00
2023-06-01T06:14:55.026Z,13.00
2023-06-01T06:15:55.173Z,14.50
2023-06-01T06:16:54.978Z,13.70
2023-06-01T06:17:55.024Z,12.50
2023-06-01T06:18:56.972Z,15.70
2023-06-01T06:19:55.015Z,14.70
2023-06-01T06:20:54.916Z,11.80
2023-06-01T06:21:54.989Z,14.90
2023-06-01T06:22:54.910Z,14.50
2023-06-01T06:23:54.888Z,13.10
2023-06-01T06:24:56.897Z,15.40
2023-06-01T06:25:55.161Z,12.30
2023-06-01T06:26:56.426Z,17.20
2023-06-01T06:27:54.937Z,14.40
2023-06-01T06:28:56.468Z,14.00
2023-06-01T06:29:54.891Z,14.60
2023-06-01T06:30:54.898Z,15.20
2023-06-01T06:31:55.404Z,13.00
2023-06-01T06:32:54.921Z,16.00
2023-06-01T06:33:54.875Z,15.30
2023-06-01T06:34:54.803Z,12.00
2023-06-01T06:35:54.825Z,13.90
2023-06-01T06:36:54.895Z,15.70
2023-06-01T06:37:54.782Z,13.70
2023-06-01T06:38:54.801Z,12.30
2023-06-01T06:39:54.809Z,12.70
2023-06-01T06:40:54.746Z,11.60
2023-06-01T06:41:54.740Z,18.10
2023-06-01T06:42:54.838Z,17.20
2023-06-01T06:43:54.838Z,15.50
2023-06-01T06:44:54.658Z,10.70
2023-06-01T06:45:54.676Z,13.10
2023-06-01T06:46:54.753Z,15.90
2023-06-01T06:47:54.828Z,12.60
2023-06-01T06:48:54.786Z,12.80
2023-06-01T06:49:54.866Z,13.50
2023-06-01T06:50:56.123Z,13.40
2023-06-01T06:51:54.669Z,12.10
2023-06-01T06:52:56.347Z,12.30
2023-06-01T06:53:54.677Z,16.80
2023-06-01T06:54:54.749Z,14.60
2023-06-01T06:55:54.625Z,18.30
2023-06-01T06:56:54.710Z,16.70
2023-06-01T06:57:55.194Z,12.80
2023-06-01T06:59:06.512Z,18.40
2023-06-01T06:59:55.551Z,11.20
2023-06-01T07:00:54.570Z,12.60
2023-06-01T07:01:54.593Z,11.80
2023-06-01T07:02:57.977Z,10.30
2023-06-01T07:03:54.530Z,11.40
2023-06-01T07:04:56.455Z,19.90
2023-06-01T07:05:54.617Z,12.40
2023-06-01T07:06:54.602Z,10.90
2023-06-01T07:07:55.764Z,11.00
2023-06-01T07:08:54.465Z,16.00
2023-06-01T07:09:54.443Z,11.10
2023-06-01T07:10:54.532Z,12.00
2023-06-01T07:11:54.434Z,11.40
2023-06-01T07:12:54.427Z,14.80
2023-06-01T07:13:54.386Z,12.70
2023-06-01T07:14:54.329Z,13.10
2023-06-01T07:15:54.410Z,12.80
2023-06-01T07:16:54.390Z,14.50
2023-06-01T07:17:54.393Z,14.60
2023-06-01T07:18:54.376Z,13.10
2023-06-01T07:19:55.115Z,15.10
2023-06-01T07:20:54.429Z,14.00
2023-06-01T07:21:54.493Z,12.10
2023-06-01T07:22:55.130Z,12.60
2023-06-01T07:23:54.318Z,16.90
2023-06-01T07:24:54.364Z,15.80
2023-06-01T07:25:54.331Z,12.60
2023-06-01T07:26:54.232Z,12.40
2023-06-01T07:27:54.270Z,12.70
2023-06-01T07:28:54.187Z,12.20
2023-06-01T07:29:54.944Z,17.20
2023-06-01T07:30:54.223Z,13.50
2023-06-01T07:31:54.515Z,14.20
2023-06-01T07:32:54.362Z,12.80
2023-06-01T07:33:54.190Z,13.60
2023-06-01T07:34:54.362Z,13.10
2023-06-01T07:35:54.384Z,14.60
2023-06-01T07:36:57.192Z,11.90
2023-06-01T07:37:55.207Z,11.90
2023-06-01T07:38:54.116Z,16.30
2023-06-01T07:39:54.168Z,10.60
2023-06-01T07:40:54.164Z,13.10
2023-06-01T07:41:54.095Z,12.60
2023-06-01T07:42:54.100Z,16.20
2023-06-01T07:43:54.170Z,12.20
2023-06-01T07:44:54.126Z,10.90
2023-06-01T07:45:54.151Z,14.90
2023-06-01T07:46:54.068Z,13.00
2023-06-01T07:47:54.343Z,13.20
2023-06-01T07:48:54.120Z,14.40
2023-06-01T07:49:54.017Z,13.50
2023-06-01T07:50:54.016Z,11.80
2023-06-01T07:51:54.102Z,12.60
2023-06-01T07:52:53.924Z,13.20
2023-06-01T07:53:54.007Z,14.80
2023-06-01T07:54:53.950Z,14.90
2023-06-01T07:55:53.990Z,17.50
2023-06-01T07:56:53.887Z,14.80
2023-06-01T07:57:53.985Z,14.30
2023-06-01T07:58:54.067Z,15.40
2023-06-01T07:59:54.278Z,16.20
2023-06-01T08:00:53.882Z,14.40
2023-06-01T08:01:53.897Z,17.50
2023-06-01T08:02:54.016Z,11.30
2023-06-01T08:03:53.914Z,15.80
2023-06-01T08:04:53.776Z,14.50
2023-06-01T08:05:54.074Z,15.10
2023-06-01T08:06:53.899Z,14.00
2023-06-01T08:07:53.893Z,13.30
2023-06-01T08:08:53.808Z,13.80
2023-06-01T08:09:53.846Z,13.10
2023-06-01T08:10:54.537Z,15.70
2023-06-01T08:11:53.834Z,12.70
2023-06-01T08:12:53.727Z,17.20
2023-06-01T08:13:54.504Z,16.00
2023-06-01T08:14:53.792Z,13.70
2023-06-01T08:15:53.768Z,16.70
2023-06-01T08:16:53.801Z,13.40
2023-06-01T08:17:53.701Z,14.80
2023-06-01T08:18:53.709Z,13.70
2023-06-01T08:19:55.908Z,13.20
2023-06-01T08:20:55.699Z,15.10
2023-06-01T08:21:53.734Z,12.40
2023-06-01T08:22:53.700Z,14.30
2023-06-01T08:23:53.659Z,14.30
2023-06-01T08:24:53.601Z,13.50
2023-06-01T08:25:53.644Z,14.60
2023-06-01T08:26:53.773Z,14.60
2023-06-01T08:27:53.888Z,15.30
2023-06-01T08:28:53.532Z,15.80
2023-06-01T08:29:55.227Z,11.30
2023-06-01T08:30:53.647Z,12.90
2023-06-01T08:31:53.672Z,14.40
2023-06-01T08:32:53.594Z,14.20
2023-06-01T08:33:53.613Z,15.60
2023-06-01T08:34:53.506Z,16.90
2023-06-01T08:35:53.552Z,15.40
2023-06-01T08:36:55.270Z,18.20
2023-06-01T08:37:53.501Z,16.60
2023-06-01T08:38:53.463Z,14.30
2023-06-01T08:39:55.265Z,16.00
2023-06-01T08:40:53.485Z,11.90
2023-06-01T08:41:54.894Z,15.50
2023-06-01T08:42:53.473Z,14.70
2023-06-01T08:43:53.427Z,14.20
2023-06-01T08:44:53.428Z,15.10
2023-06-01T08:45:53.397Z,14.60
2023-06-01T08:46:53.422Z,18.40
2023-06-01T08:47:53.388Z,15.10
2023-06-01T08:48:54.880Z,11.70
2023-06-01T08:49:53.333Z,12.60
2023-06-01T08:50:53.347Z,15.30
2023-06-01T08:51:53.309Z,9.80
2023-06-01T08:52:53.259Z,12.10
2023-06-01T08:53:53.362Z,14.20
2023-06-01T08:54:53.372Z,12.90
2023-06-01T08:55:53.977Z,12.00
2023-06-01T08:56:53.285Z,15.00
2023-06-01T08:57:53.324Z,16.60
2023-06-01T08:58:53.339Z,14.60
2023-06-01T08:59:53.260Z,12.40
2023-06-01T09:00:53.267Z,14.90
2023-06-01T09:01:53.479Z,14.90
2023-06-01T09:02:55.293Z,16.00
2023-06-01T09:03:53.298Z,18.80
2023-06-01T09:04:53.252Z,14.00
2023-06-01T09:05:53.208Z,13.50
2023-06-01T09:06:53.621Z,14.30
2023-06-01T09:07:53.259Z,17.70
2023-06-01T09:08:53.401Z,17.80
2023-06-01T09:09:53.460Z,14.90
2023-06-01T09:10:53.142Z,14.30
2023-06-01T09:11:53.130Z,14.80
2023-06-01T09:12:53.135Z,15.40
2023-06-01T09:13:53.100Z,14.50
2023-06-01T09:14:53.219Z,18.00
2023-06-01T09:15:53.149Z,20.20
2023-06-01T09:16:53.075Z,19.80
2023-06-01T09:17:53.191Z,15.30
2023-06-01T09:18:54.478Z,17.30
2023-06-01T09:19:52.969Z,15.40
2023-06-01T09:20:52.966Z,16.70
2023-06-01T09:21:55.018Z,17.30
2023-06-01T09:22:52.941Z,16.40
2023-06-01T09:23:52.983Z,18.40
2023-06-01T09:24:52.942Z,17.20
2023-06-01T09:25:52.893Z,15.20
2023-06-01T09:26:52.937Z,15.20
2023-06-01T09:27:52.931Z,16.70
2023-06-01T09:28:54.738Z,18.10
2023-06-01T09:29:52.965Z,15.90
2023-06-01T09:30:52.943Z,17.70
2023-06-01T09:31:52.904Z,22.10
2023-06-01T09:32:52.887Z,17.80
2023-06-01T09:33:52.859Z,16.70
2023-06-01T09:34:52.829Z,17.50
2023-06-01T09:35:52.867Z,19.60
2023-06-01T09:36:52.815Z,15.10
2023-06-01T09:37:52.845Z,16.60
2023-06-01T09:38:52.769Z,14.10
2023-06-01T09:39:52.750Z,17.70
2023-06-01T09:40:52.820Z,16.60
2023-06-01T09:41:52.744Z,15.80
2023-06-01T09:42:54.646Z,15.20
2023-06-01T09:43:52.698Z,20.50
2023-06-01T09:44:52.665Z,18.30
2023-06-01T09:45:52.726Z,15.40
2023-06-01T09:46:52.765Z,15.00
2023-06-01T09:47:52.656Z,13.40
2023-06-01T09:48:52.736Z,15.10
2023-06-01T09:49:54.685Z,12.40
2023-06-01T09:50:52.629Z,14.70
2023-06-01T09:51:52.647Z,15.80
2023-06-01T09:52:52.674Z,14.40
2023-06-01T09:53:52.585Z,15.60
2023-06-01T09:54:52.618Z,15.80
2023-06-01T09:55:52.561Z,14.70
2023-06-01T09:56:54.824Z,16.40
2023-06-01T09:57:53.571Z,18.20
2023-06-01T09:58:52.589Z,17.90
2023-06-01T09:59:52.587Z,17.00
2023-06-01T10:00:52.574Z,18.30
2023-06-01T10:01:52.536Z,17.80
2023-06-01T10:02:52.602Z,15.90
2023-06-01T10:03:53.169Z,18.90
2023-06-01T10:04:52.488Z,17.10
2023-06-01T10:05:52.511Z,17.50
2023-06-01T10:06:52.480Z,16.40
2023-06-01T10:07:52.498Z,19.70
2023-06-01T10:08:52.478Z,19.70
2023-06-01T10:09:52.509Z,23.80
2023-06-01T10:10:54.424Z,22.40
2023-06-01T10:11:54.418Z,23.00
2023-06-01T10:12:52.437Z,21.30
2023-06-01T10:13:52.458Z,20.70
2023-06-01T10:14:52.476Z,21.20
2023-06-01T10:15:52.476Z,19.90
2023-06-01T10:16:52.435Z,19.50
2023-06-01T10:17:54.407Z,20.90
2023-06-01T10:18:52.375Z,21.60
2023-06-01T10:19:52.309Z,20.80
2023-06-01T10:20:52.302Z,23.30
2023-06-01T10:21:52.437Z,19.60
2023-06-01T10:22:52.380Z,22.90
2023-06-01T10:23:54.195Z,20.10
2023-06-01T10:24:52.439Z,18.30
2023-06-01T10:25:52.273Z,21.80
2023-06-01T10:26:52.297Z,19.20
2023-06-01T10:27:52.279Z,21.80
2023-06-01T10:28:52.297Z,22.50
2023-06-01T10:29:52.191Z,23.80
2023-06-01T10:30:54.161Z,25.20
2023-06-01T10:31:52.341Z,24.90
2023-06-01T10:32:52.193Z,23.10
2023-06-01T10:33:52.240Z,26.10
2023-06-01T10:34:52.140Z,21.30
2023-06-01T10:35:52.165Z,24.40
2023-06-01T10:36:54.226Z,21.90
2023-06-01T10:37:52.166Z,27.10
2023-06-01T10:38:52.173Z,26.80
2023-06-01T10:39:52.172Z,27.60
2023-06-01T10:40:52.140Z,25.90
2023-06-01T10:41:52.067Z,24.40
2023-06-01T10:42:52.034Z,25.70
2023-06-01T10:43:54.058Z,24.30
2023-06-01T10:44:52.041Z,22.10
2023-06-01T10:45:52.102Z,19.10
2023-06-01T10:46:52.272Z,21.80
2023-06-01T10:47:51.999Z,19.80
2023-06-01T10:48:52.064Z,19.70
2023-06-01T10:49:56.307Z,20.60
2023-06-01T10:50:52.917Z,20.60
2023-06-01T10:51:51.972Z,18.20
2023-06-01T10:52:52.105Z,19.80
2023-06-01T10:53:51.926Z,21.60
2023-06-01T10:54:51.994Z,20.70
2023-06-01T10:55:51.969Z,22.40
2023-06-01T10:56:52.096Z,23.60
2023-06-01T10:57:51.944Z,22.70
2023-06-01T10:58:51.918Z,21.80
2023-06-01T10:59:51.992Z,25.00
2023-06-01T11:00:52.074Z,25.00
2023-06-01T11:01:51.913Z,22.50
2023-06-01T11:02:52.124Z,25.10
2023-06-01T11:03:53.961Z,22.10
2023-06-01T11:04:52.022Z,24.70
2023-06-01T11:05:51.917Z,21.80
2023-06-01T11:06:51.892Z,21.90
2023-06-01T11:07:51.818Z,22.80
2023-06-01T11:08:51.827Z,22.20
2023-06-01T11:09:51.769Z,21.40
2023-06-01T11:10:51.826Z,20.70
2023-06-01T11:11:51.976Z,19.90
2023-06-01T11:12:53.700Z,19.10
2023-06-01T11:13:51.850Z,19.30
2023-06-01T11:14:51.795Z,20.50
2023-06-01T11:16:00.744Z,16.10
2023-06-01T11:16:52.850Z,20.40
2023-06-01T11:17:51.723Z,18.70
2023-06-01T11:18:51.725Z,16.40
2023-06-01T11:19:51.665Z,20.30
2023-06-01T11:20:51.845Z,15.30
2023-06-01T11:21:51.671Z,14.30
2023-06-01T11:22:51.648Z,13.50
2023-06-01T11:23:51.716Z,15.80
2023-06-01T11:24:53.057Z,14.40
2023-06-01T11:25:53.554Z,12.50
2023-06-01T11:26:51.600Z,14.80
2023-06-01T11:27:51.607Z,13.00
2023-06-01T11:28:51.607Z,13.60
2023-06-01T11:29:51.581Z,12.50
2023-06-01T11:30:51.604Z,12.90
2023-06-01T11:31:51.708Z,14.60
2023-06-01T11:32:53.613Z,15.00
2023-06-01T11:33:51.540Z,15.70
2023-06-01T11:34:51.538Z,13.50
2023-06-01T11:35:51.451Z,14.80
2023-06-01T11:36:51.501Z,17.40
2023-06-01T11:37:51.540Z,14.00
2023-06-01T11:38:55.369Z,12.00
2023-06-01T11:39:51.528Z,14.10
2023-06-01T11:40:51.441Z,12.40
2023-06-01T11:41:51.456Z,12.90
2023-06-01T11:42:51.438Z,13.10
2023-06-01T11:43:51.396Z,11.50
2023-06-01T11:44:51.410Z,11.30
2023-06-01T11:45:51.405Z,10.60
2023-06-01T11:46:51.504Z,9.70
2023-06-01T11:47:51.561Z,9.90
2023-06-01T11:48:51.425Z,10.70
2023-06-01T11:49:51.558Z,12.00
2023-06-01T11:50:51.414Z,11.60
2023-06-01T11:51:51.605Z,11.10
2023-06-01T11:52:53.343Z,13.20
2023-06-01T11:53:51.352Z,9.10
2023-06-01T11:54:51.336Z,12.10
2023-06-01T11:55:51.377Z,10.00
2023-06-01T11:56:51.394Z,10.30
2023-06-01T11:57:51.324Z,12.90
2023-06-01T11:58:51.326Z,13.60
2023-06-01T11:59:51.407Z,9.90
2023-06-01T12:00:51.285Z,14.50
2023-06-01T12:01:51.354Z,11.80
2023-06-01T12:02:51.386Z,10.00
2023-06-01T12:03:51.311Z,13.60
2023-06-01T12:04:51.239Z,12.30
2023-06-01T12:05:51.437Z,12.60
2023-06-01T12:06:51.269Z,10.30
2023-06-01T12:07:51.167Z,14.40
2023-06-01T12:08:51.204Z,11.70
2023-06-01T12:09:51.110Z,15.50
2023-06-01T12:10:51.186Z,11.90
2023-06-01T12:11:51.190Z,13.20
2023-06-01T12:12:51.502Z,13.00
2023-06-01T12:13:53.122Z,13.10
2023-06-01T12:14:51.172Z,8.80
2023-06-01T12:15:51.135Z,10.60
2023-06-01T12:16:51.075Z,11.40
2023-06-01T12:18:51.140Z,13.90
2023-06-01T12:19:51.152Z,10.50
2023-06-01T12:20:51.036Z,10.30
2023-06-01T12:21:51.121Z,12.50
2023-06-01T12:22:50.962Z,12.10
2023-06-01T12:23:50.969Z,12.10
2023-06-01T12:24:50.982Z,11.40
2023-06-01T12:25:51.085Z,12.00
2023-06-01T12:26:51.245Z,11.70
2023-06-01T12:27:52.906Z,12.50
2023-06-01T12:28:53.023Z,13.30
2023-06-01T12:29:50.931Z,12.10
2023-06-01T12:30:51.035Z,10.80
2023-06-01T12:31:50.906Z,12.80
2023-06-01T12:32:50.987Z,10.80
2023-06-01T12:33:50.927Z,11.10
2023-06-01T12:34:50.921Z,11.20
2023-06-01T12:35:50.844Z,10.50
2023-06-01T12:36:50.816Z,14.00
2023-06-01T12:37:50.842Z,10.80
2023-06-01T12:38:50.908Z,11.20
2023-06-01T12:39:50.858Z,9.50
2023-06-01T12:40:50.929Z,10.90
2023-06-01T12:41:52.697Z,11.50
2023-06-01T12:42:50.827Z,11.60
2023-06-01T12:43:50.819Z,13.80
2023-06-01T12:44:50.795Z,9.70
2023-06-01T12:45:50.807Z,9.40
2023-06-01T12:46:50.820Z,9.70
2023-06-01T12:47:50.925Z,11.00
2023-06-01T12:48:52.749Z,11.70
2023-06-01T12:49:50.753Z,10.00
2023-06-01T12:50:50.721Z,9.80
2023-06-01T12:51:50.773Z,9.90
2023-06-01T12:52:50.708Z,11.90
2023-06-01T12:53:50.723Z,13.00
2023-06-01T12:54:50.653Z,9.40